sensor_id;sensor_type;location;lat;lon;timestamp;P1;durP1;ratioP1;P2;durP2;ratioP2
69906;SDS011;57190;47.918;8.112;2022-07-23T00:01:21;51.22;;;46.22;;
69906;SDS011;57190;47.918;8.112;2022-07-23T00:03:46;24.67;;;22.48;;
69906;SDS011;57190;47.918;8.112;2022-07-23T00:06:13;104.95;;;94.43;;
69906;SDS011;57190;47.918;8.112;2022-07-23T00:08:38;142.43;;;129.10;;
69906;SDS011;57190;47.918;8.112;2022-07-23T00:11:04;22.48;;;20.38;;
69906;SDS011;57190;47.918;8.112;2022-07-23T00:13:30;10.52;;;9.63;;
69906;SDS011;57190;47.918;8.112;2022-07-23T00:15:56;8.73;;;8.07;;
69906;SDS011;57190;47.918;8.112;2022-07-23T00:18:21;7.95;;;7.45;;
69906;SDS011;57190;47.918;8.112;2022-07-23T00:20:47;7.03;;;6.50;;
69906;SDS011;57190;47.918;8.112;2022-07-23T00:23:13;6.97;;;6.47;;
69906;SDS011;57190;47.918;8.112;2022-07-23T00:25:38;6.38;;;5.53;;
69906;SDS011;57190;47.918;8.112;2022-07-23T00:28:04;7.25;;;6.70;;
69906;SDS011;57190;47.918;8.112;2022-07-23T00:30:30;7.82;;;7.22;;
69906;SDS011;57190;47.918;8.112;2022-07-23T00:32:58;6.60;;;6.20;;
69906;SDS011;57190;47.918;8.112;2022-07-23T00:35:27;6.80;;;6.40;;
69906;SDS011;57190;47.918;8.112;2022-07-23T00:37:55;8.27;;;7.00;;
69906;SDS011;57190;47.918;8.112;2022-07-23T00:40:22;6.22;;;5.82;;
69906;SDS011;57190;47.918;8.112;2022-07-23T00:42:47;6.65;;;6.20;;
69906;SDS011;57190;47.918;8.112;2022-07-23T00:45:13;7.13;;;6.65;;
69906;SDS011;57190;47.918;8.112;2022-07-23T00:47:38;7.07;;;6.57;;
69906;SDS011;57190;47.918;8.112;2022-07-23T00:50:05;6.85;;;6.40;;
69906;SDS011;57190;47.918;8.112;2022-07-23T00:52:33;8.02;;;7.32;;
69906;SDS011;57190;47.918;8.112;2022-07-23T00:55:00;6.43;;;5.93;;
69906;SDS011;57190;47.918;8.112;2022-07-23T00:57:26;7.60;;;7.10;;
69906;SDS011;57190;47.918;8.112;2022-07-23T00:59:52;7.22;;;6.65;;
69906;SDS011;57190;47.918;8.112;2022-07-23T01:02:17;7.40;;;6.90;;
69906;SDS011;57190;47.918;8.112;2022-07-23T01:04:43;7.25;;;6.35;;
69906;SDS011;57190;47.918;8.112;2022-07-23T01:07:09;6.70;;;6.20;;
69906;SDS011;57190;47.918;8.112;2022-07-23T01:09:34;7.20;;;6.70;;
69906;SDS011;57190;47.918;8.112;2022-07-23T01:12:01;8.10;;;7.50;;
69906;SDS011;57190;47.918;8.112;2022-07-23T01:14:28;7.00;;;6.50;;
69906;SDS011;57190;47.918;8.112;2022-07-23T01:16:54;7.05;;;6.53;;
69906;SDS011;57190;47.918;8.112;2022-07-23T01:19:20;7.40;;;6.80;;
69906;SDS011;57190;47.918;8.112;2022-07-23T01:21:50;7.13;;;6.57;;
69906;SDS011;57190;47.918;8.112;2022-07-23T01:24:17;7.10;;;6.60;;
69906;SDS011;57190;47.918;8.112;2022-07-23T01:26:47;6.93;;;6.43;;
69906;SDS011;57190;47.918;8.112;2022-07-23T01:29:14;6.72;;;6.13;;
69906;SDS011;57190;47.918;8.112;2022-07-23T01:31:40;6.90;;;6.40;;
69906;SDS011;57190;47.918;8.112;2022-07-23T01:34:06;6.75;;;6.25;;
69906;SDS011;57190;47.918;8.112;2022-07-23T01:36:33;7.10;;;6.60;;
69906;SDS011;57190;47.918;8.112;2022-07-23T01:38:59;7.20;;;6.70;;
69906;SDS011;57190;47.918;8.112;2022-07-23T01:41:24;6.93;;;6.40;;
69906;SDS011;57190;47.918;8.112;2022-07-23T01:43:50;6.50;;;6.10;;
69906;SDS011;57190;47.918;8.112;2022-07-23T01:46:15;6.90;;;6.40;;
69906;SDS011;57190;47.918;8.112;2022-07-23T01:48:41;6.93;;;6.43;;
69906;SDS011;57190;47.918;8.112;2022-07-23T01:51:07;7.38;;;6.88;;
69906;SDS011;57190;47.918;8.112;2022-07-23T01:53:32;6.85;;;6.35;;
69906;SDS011;57190;47.918;8.112;2022-07-23T01:55:58;6.72;;;6.28;;
69906;SDS011;57190;47.918;8.112;2022-07-23T01:58:24;7.25;;;6.75;;
69906;SDS011;57190;47.918;8.112;2022-07-23T02:00:50;7.05;;;6.50;;
69906;SDS011;57190;47.918;8.112;2022-07-23T02:03:16;7.43;;;6.93;;
69906;SDS011;57190;47.918;8.112;2022-07-23T02:05:41;7.65;;;7.15;;
69906;SDS011;57190;47.918;8.112;2022-07-23T02:08:07;7.28;;;6.72;;
69906;SDS011;57190;47.918;8.112;2022-07-23T02:10:32;7.38;;;6.78;;
69906;SDS011;57190;47.918;8.112;2022-07-23T02:12:58;7.03;;;6.43;;
69906;SDS011;57190;47.918;8.112;2022-07-23T02:15:23;7.40;;;6.90;;
69906;SDS011;57190;47.918;8.112;2022-07-23T02:17:49;7.75;;;7.07;;
69906;SDS011;57190;47.918;8.112;2022-07-23T02:20:15;7.13;;;6.70;;
69906;SDS011;57190;47.918;8.112;2022-07-23T02:22:41;6.75;;;6.25;;
69906;SDS011;57190;47.918;8.112;2022-07-23T02:25:06;7.80;;;7.30;;
69906;SDS011;57190;47.918;8.112;2022-07-23T02:27:33;7.45;;;6.93;;
69906;SDS011;57190;47.918;8.112;2022-07-23T02:29:58;7.60;;;7.10;;
69906;SDS011;57190;47.918;8.112;2022-07-23T02:32:24;7.57;;;6.93;;
69906;SDS011;57190;47.918;8.112;2022-07-23T02:34:50;8.00;;;7.47;;
69906;SDS011;57190;47.918;8.112;2022-07-23T02:37:16;7.45;;;6.85;;
69906;SDS011;57190;47.918;8.112;2022-07-23T02:39:42;6.43;;;6.03;;
69906;SDS011;57190;47.918;8.112;2022-07-23T02:42:08;7.40;;;6.80;;
69906;SDS011;57190;47.918;8.112;2022-07-23T02:44:34;8.27;;;7.60;;
69906;SDS011;57190;47.918;8.112;2022-07-23T02:47:00;6.93;;;6.35;;
69906;SDS011;57190;47.918;8.112;2022-07-23T02:49:26;7.18;;;6.68;;
69906;SDS011;57190;47.918;8.112;2022-07-23T02:51:52;7.13;;;6.70;;
69906;SDS011;57190;47.918;8.112;2022-07-23T02:54:17;7.35;;;6.85;;
69906;SDS011;57190;47.918;8.112;2022-07-23T02:56:44;6.78;;;6.15;;
69906;SDS011;57190;47.918;8.112;2022-07-23T02:59:09;7.18;;;6.68;;
69906;SDS011;57190;47.918;8.112;2022-07-23T03:01:35;6.75;;;6.25;;
69906;SDS011;57190;47.918;8.112;2022-07-23T03:04:01;6.32;;;5.85;;
69906;SDS011;57190;47.918;8.112;2022-07-23T03:06:27;6.45;;;6.05;;
69906;SDS011;57190;47.918;8.112;2022-07-23T03:08:53;6.72;;;6.30;;
69906;SDS011;57190;47.918;8.112;2022-07-23T03:11:18;6.63;;;6.22;;
69906;SDS011;57190;47.918;8.112;2022-07-23T03:13:44;7.00;;;6.50;;
69906;SDS011;57190;47.918;8.112;2022-07-23T03:16:10;6.15;;;5.75;;
69906;SDS011;57190;47.918;8.112;2022-07-23T03:18:35;5.78;;;5.38;;
69906;SDS011;57190;47.918;8.112;2022-07-23T03:21:01;6.47;;;6.07;;
69906;SDS011;57190;47.918;8.112;2022-07-23T03:23:27;5.97;;;5.60;;
69906;SDS011;57190;47.918;8.112;2022-07-23T03:25:52;6.65;;;6.13;;
69906;SDS011;57190;47.918;8.112;2022-07-23T03:28:18;5.97;;;5.57;;
69906;SDS011;57190;47.918;8.112;2022-07-23T03:30:45;8.40;;;7.60;;
69906;SDS011;57190;47.918;8.112;2022-07-23T03:33:18;7.88;;;6.75;;
69906;SDS011;57190;47.918;8.112;2022-07-23T03:35:46;7.65;;;7.10;;
69906;SDS011;57190;47.918;8.112;2022-07-23T03:38:12;7.60;;;6.72;;
69906;SDS011;57190;47.918;8.112;2022-07-23T03:40:38;7.53;;;6.93;;
69906;SDS011;57190;47.918;8.112;2022-07-23T03:43:04;7.30;;;6.70;;
69906;SDS011;57190;47.918;8.112;2022-07-23T03:45:30;7.28;;;6.65;;
69906;SDS011;57190;47.918;8.112;2022-07-23T03:47:56;7.10;;;6.50;;
69906;SDS011;57190;47.918;8.112;2022-07-23T03:50:21;6.85;;;6.35;;
69906;SDS011;57190;47.918;8.112;2022-07-23T03:52:47;7.20;;;5.85;;
69906;SDS011;57190;47.918;8.112;2022-07-23T03:55:13;7.00;;;6.50;;
69906;SDS011;57190;47.918;8.112;2022-07-23T03:57:38;8.10;;;7.53;;
69906;SDS011;57190;47.918;8.112;2022-07-23T04:00:04;6.32;;;5.93;;
69906;SDS011;57190;47.918;8.112;2022-07-23T04:02:32;7.10;;;6.60;;
69906;SDS011;57190;47.918;8.112;2022-07-23T04:04:57;7.38;;;6.78;;
69906;SDS011;57190;47.918;8.112;2022-07-23T04:07:24;7.78;;;7.15;;
69906;SDS011;57190;47.918;8.112;2022-07-23T04:09:50;6.97;;;6.43;;
69906;SDS011;57190;47.918;8.112;2022-07-23T04:12:15;7.05;;;6.53;;
69906;SDS011;57190;47.918;8.112;2022-07-23T04:14:41;7.15;;;6.40;;
69906;SDS011;57190;47.918;8.112;2022-07-23T04:17:06;7.15;;;6.45;;
69906;SDS011;57190;47.918;8.112;2022-07-23T04:19:32;6.75;;;6.25;;
69906;SDS011;57190;47.918;8.112;2022-07-23T04:21:58;6.82;;;6.32;;
69906;SDS011;57190;47.918;8.112;2022-07-23T04:24:23;7.40;;;6.90;;
69906;SDS011;57190;47.918;8.112;2022-07-23T04:26:49;7.35;;;6.85;;
69906;SDS011;57190;47.918;8.112;2022-07-23T04:29:14;6.18;;;5.78;;
69906;SDS011;57190;47.918;8.112;2022-07-23T04:31:40;6.95;;;6.45;;
69906;SDS011;57190;47.918;8.112;2022-07-23T04:34:05;7.40;;;6.80;;
69906;SDS011;57190;47.918;8.112;2022-07-23T04:36:31;7.38;;;6.78;;
69906;SDS011;57190;47.918;8.112;2022-07-23T04:38:56;6.95;;;6.45;;
69906;SDS011;57190;47.918;8.112;2022-07-23T04:41:22;7.15;;;6.60;;
69906;SDS011;57190;47.918;8.112;2022-07-23T04:43:48;6.90;;;6.35;;
69906;SDS011;57190;47.918;8.112;2022-07-23T04:46:13;7.32;;;6.82;;
69906;SDS011;57190;47.918;8.112;2022-07-23T04:48:39;6.57;;;6.03;;
69906;SDS011;57190;47.918;8.112;2022-07-23T04:51:05;6.95;;;6.40;;
69906;SDS011;57190;47.918;8.112;2022-07-23T04:53:31;7.40;;;6.80;;
69906;SDS011;57190;47.918;8.112;2022-07-23T04:55:56;6.78;;;6.28;;
69906;SDS011;57190;47.918;8.112;2022-07-23T04:58:22;8.35;;;7.63;;
69906;SDS011;57190;47.918;8.112;2022-07-23T05:00:48;6.80;;;6.40;;
69906;SDS011;57190;47.918;8.112;2022-07-23T05:03:16;7.15;;;6.50;;
69906;SDS011;57190;47.918;8.112;2022-07-23T05:05:42;8.07;;;7.28;;
69906;SDS011;57190;47.918;8.112;2022-07-23T05:08:08;7.43;;;6.93;;
69906;SDS011;57190;47.918;8.112;2022-07-23T05:10:33;7.15;;;6.65;;
69906;SDS011;57190;47.918;8.112;2022-07-23T05:12:59;6.97;;;6.38;;
69906;SDS011;57190;47.918;8.112;2022-07-23T05:15:24;7.88;;;7.28;;
69906;SDS011;57190;47.918;8.112;2022-07-23T05:17:50;6.57;;;6.13;;
69906;SDS011;57190;47.918;8.112;2022-07-23T05:20:16;6.95;;;6.55;;
69906;SDS011;57190;47.918;8.112;2022-07-23T05:22:41;7.28;;;6.78;;
69906;SDS011;57190;47.918;8.112;2022-07-23T05:25:07;7.90;;;7.38;;
69906;SDS011;57190;47.918;8.112;2022-07-23T05:27:32;8.35;;;7.70;;
69906;SDS011;57190;47.918;8.112;2022-07-23T05:29:58;7.97;;;7.47;;
69906;SDS011;57190;47.918;8.112;2022-07-23T05:32:24;7.43;;;6.82;;
69906;SDS011;57190;47.918;8.112;2022-07-23T05:34:49;7.85;;;7.25;;
69906;SDS011;57190;47.918;8.112;2022-07-23T05:37:15;7.68;;;7.18;;
69906;SDS011;57190;47.918;8.112;2022-07-23T05:39:41;7.75;;;7.25;;
69906;SDS011;57190;47.918;8.112;2022-07-23T05:42:07;7.63;;;7.10;;
69906;SDS011;57190;47.918;8.112;2022-07-23T05:44:33;7.97;;;7.38;;
69906;SDS011;57190;47.918;8.112;2022-07-23T05:46:59;7.15;;;6.65;;
69906;SDS011;57190;47.918;8.112;2022-07-23T05:49:24;7.20;;;6.53;;
69906;SDS011;57190;47.918;8.112;2022-07-23T05:51:50;7.38;;;6.82;;
69906;SDS011;57190;47.918;8.112;2022-07-23T05:54:16;7.75;;;7.15;;
69906;SDS011;57190;47.918;8.112;2022-07-23T05:56:41;7.60;;;7.13;;
69906;SDS011;57190;47.918;8.112;2022-07-23T05:59:07;7.43;;;6.80;;
69906;SDS011;57190;47.918;8.112;2022-07-23T06:01:33;7.70;;;7.10;;
69906;SDS011;57190;47.918;8.112;2022-07-23T06:03:58;7.47;;;6.88;;
69906;SDS011;57190;47.918;8.112;2022-07-23T06:06:24;7.63;;;7.03;;
69906;SDS011;57190;47.918;8.112;2022-07-23T06:08:49;7.80;;;7.22;;
69906;SDS011;57190;47.918;8.112;2022-07-23T06:11:15;8.40;;;7.70;;
69906;SDS011;57190;47.918;8.112;2022-07-23T06:13:40;7.20;;;6.70;;
69906;SDS011;57190;47.918;8.112;2022-07-23T06:16:06;7.70;;;7.03;;
69906;SDS011;57190;47.918;8.112;2022-07-23T06:18:31;7.28;;;6.78;;
69906;SDS011;57190;47.918;8.112;2022-07-23T06:20:57;7.30;;;6.80;;
69906;SDS011;57190;47.918;8.112;2022-07-23T06:23:22;7.00;;;6.60;;
69906;SDS011;57190;47.918;8.112;2022-07-23T06:25:48;6.90;;;6.47;;
69906;SDS011;57190;47.918;8.112;2022-07-23T06:28:14;7.88;;;7.25;;
69906;SDS011;57190;47.918;8.112;2022-07-23T06:30:40;8.00;;;7.50;;
69906;SDS011;57190;47.918;8.112;2022-07-23T06:33:06;6.80;;;6.30;;
69906;SDS011;57190;47.918;8.112;2022-07-23T06:35:31;6.55;;;6.07;;
69906;SDS011;57190;47.918;8.112;2022-07-23T06:37:58;6.80;;;6.30;;
69906;SDS011;57190;47.918;8.112;2022-07-23T06:40:24;6.72;;;6.28;;
69906;SDS011;57190;47.918;8.112;2022-07-23T06:42:50;7.43;;;6.93;;
69906;SDS011;57190;47.918;8.112;2022-07-23T06:45:16;7.88;;;7.38;;
69906;SDS011;57190;47.918;8.112;2022-07-23T06:47:42;6.65;;;6.25;;
69906;SDS011;57190;47.918;8.112;2022-07-23T06:50:07;7.28;;;6.68;;
69906;SDS011;57190;47.918;8.112;2022-07-23T06:52:33;6.72;;;6.32;;
69906;SDS011;57190;47.918;8.112;2022-07-23T06:54:59;7.75;;;7.10;;
69906;SDS011;57190;47.918;8.112;2022-07-23T06:57:24;7.55;;;7.05;;
69906;SDS011;57190;47.918;8.112;2022-07-23T06:59:51;6.60;;;6.10;;
69906;SDS011;57190;47.918;8.112;2022-07-23T07:02:18;7.00;;;6.50;;
69906;SDS011;57190;47.918;8.112;2022-07-23T07:04:43;6.75;;;6.35;;
69906;SDS011;57190;47.918;8.112;2022-07-23T07:07:09;7.00;;;6.38;;
69906;SDS011;57190;47.918;8.112;2022-07-23T07:09:34;8.15;;;7.55;;
69906;SDS011;57190;47.918;8.112;2022-07-23T07:12:00;7.90;;;7.35;;
69906;SDS011;57190;47.918;8.112;2022-07-23T07:14:26;6.88;;;6.40;;
69906;SDS011;57190;47.918;8.112;2022-07-23T07:16:52;7.72;;;7.15;;
69906;SDS011;57190;47.918;8.112;2022-07-23T07:19:17;6.82;;;6.43;;
69906;SDS011;57190;47.918;8.112;2022-07-23T07:21:43;7.53;;;6.93;;
69906;SDS011;57190;47.918;8.112;2022-07-23T07:24:08;6.88;;;6.47;;
69906;SDS011;57190;47.918;8.112;2022-07-23T07:26:34;7.80;;;7.05;;
69906;SDS011;57190;47.918;8.112;2022-07-23T07:29:00;6.85;;;6.35;;
69906;SDS011;57190;47.918;8.112;2022-07-23T07:31:25;7.30;;;6.78;;
69906;SDS011;57190;47.918;8.112;2022-07-23T07:33:51;6.20;;;5.80;;
69906;SDS011;57190;47.918;8.112;2022-07-23T07:36:17;7.22;;;6.75;;
69906;SDS011;57190;47.918;8.112;2022-07-23T07:38:42;6.97;;;6.47;;
69906;SDS011;57190;47.918;8.112;2022-07-23T07:41:08;6.80;;;6.30;;
69906;SDS011;57190;47.918;8.112;2022-07-23T07:43:35;5.82;;;5.43;;
69906;SDS011;57190;47.918;8.112;2022-07-23T07:46:02;6.60;;;6.20;;
69906;SDS011;57190;47.918;8.112;2022-07-23T07:48:28;6.50;;;5.90;;
69906;SDS011;57190;47.918;8.112;2022-07-23T07:50:54;6.50;;;6.10;;
69906;SDS011;57190;47.918;8.112;2022-07-23T07:53:19;6.47;;;5.97;;
69906;SDS011;57190;47.918;8.112;2022-07-23T07:55:45;6.55;;;6.05;;
69906;SDS011;57190;47.918;8.112;2022-07-23T07:58:10;6.70;;;6.22;;
69906;SDS011;57190;47.918;8.112;2022-07-23T08:00:36;5.65;;;5.25;;
69906;SDS011;57190;47.918;8.112;2022-07-23T08:03:02;5.78;;;5.40;;
69906;SDS011;57190;47.918;8.112;2022-07-23T08:05:28;5.63;;;5.22;;
69906;SDS011;57190;47.918;8.112;2022-07-23T08:07:55;5.65;;;5.22;;
69906;SDS011;57190;47.918;8.112;2022-07-23T08:10:22;6.35;;;5.85;;
69906;SDS011;57190;47.918;8.112;2022-07-23T08:12:49;5.88;;;5.47;;
69906;SDS011;57190;47.918;8.112;2022-07-23T08:15:19;6.43;;;6.03;;
69906;SDS011;57190;47.918;8.112;2022-07-23T08:17:45;5.95;;;5.45;;
69906;SDS011;57190;47.918;8.112;2022-07-23T08:20:12;5.85;;;5.40;;
69906;SDS011;57190;47.918;8.112;2022-07-23T08:25:20;5.78;;;5.38;;
69906;SDS011;57190;47.918;8.112;2022-07-23T08:27:48;5.70;;;5.30;;
69906;SDS011;57190;47.918;8.112;2022-07-23T08:30:15;5.78;;;5.38;;
69906;SDS011;57190;47.918;8.112;2022-07-23T08:32:48;5.90;;;5.50;;
69906;SDS011;57190;47.918;8.112;2022-07-23T08:35:14;6.47;;;6.05;;
69906;SDS011;57190;47.918;8.112;2022-07-23T08:37:40;6.38;;;5.97;;
69906;SDS011;57190;47.918;8.112;2022-07-23T08:40:06;5.90;;;5.50;;
69906;SDS011;57190;47.918;8.112;2022-07-23T08:42:32;5.90;;;5.50;;
69906;SDS011;57190;47.918;8.112;2022-07-23T08:45:00;5.90;;;5.40;;
69906;SDS011;57190;47.918;8.112;2022-07-23T08:47:27;6.93;;;6.43;;
69906;SDS011;57190;47.918;8.112;2022-07-23T08:49:54;6.07;;;5.47;;
69906;SDS011;57190;47.918;8.112;2022-07-23T08:52:21;6.57;;;5.90;;
69906;SDS011;57190;47.918;8.112;2022-07-23T08:54:47;6.18;;;5.68;;
69906;SDS011;57190;47.918;8.112;2022-07-23T08:57:14;5.88;;;5.47;;
69906;SDS011;57190;47.918;8.112;2022-07-23T08:59:40;5.25;;;4.95;;
69906;SDS011;57190;47.918;8.112;2022-07-23T09:02:06;6.45;;;5.95;;
69906;SDS011;57190;47.918;8.112;2022-07-23T09:04:31;6.50;;;6.10;;
69906;SDS011;57190;47.918;8.112;2022-07-23T09:06:57;6.55;;;6.05;;
69906;SDS011;57190;47.918;8.112;2022-07-23T09:09:23;6.40;;;6.00;;
69906;SDS011;57190;47.918;8.112;2022-07-23T09:12:08;6.30;;;5.90;;
69906;SDS011;57190;47.918;8.112;2022-07-23T09:14:44;7.03;;;6.43;;
69906;SDS011;57190;47.918;8.112;2022-07-23T09:17:16;5.95;;;5.55;;
69906;SDS011;57190;47.918;8.112;2022-07-23T09:19:44;6.47;;;5.90;;
69906;SDS011;57190;47.918;8.112;2022-07-23T09:22:23;6.43;;;5.93;;
69906;SDS011;57190;47.918;8.112;2022-07-23T09:27:48;6.38;;;5.95;;
69906;SDS011;57190;47.918;8.112;2022-07-23T09:30:22;6.78;;;6.28;;
69906;SDS011;57190;47.918;8.112;2022-07-23T09:35:45;6.32;;;5.93;;
69906;SDS011;57190;47.918;8.112;2022-07-23T09:38:11;6.75;;;6.25;;
69906;SDS011;57190;47.918;8.112;2022-07-23T09:40:37;6.90;;;6.40;;
69906;SDS011;57190;47.918;8.112;2022-07-23T09:43:03;6.95;;;6.45;;
69906;SDS011;57190;47.918;8.112;2022-07-23T09:45:29;6.53;;;6.03;;
69906;SDS011;57190;47.918;8.112;2022-07-23T09:48:16;6.28;;;5.88;;
69906;SDS011;57190;47.918;8.112;2022-07-23T09:50:42;6.75;;;6.32;;
69906;SDS011;57190;47.918;8.112;2022-07-23T09:53:09;6.95;;;6.40;;
69906;SDS011;57190;47.918;8.112;2022-07-23T09:55:48;7.30;;;6.80;;
69906;SDS011;57190;47.918;8.112;2022-07-23T09:58:14;6.63;;;6.22;;
69906;SDS011;57190;47.918;8.112;2022-07-23T10:00:42;6.82;;;6.43;;
69906;SDS011;57190;47.918;8.112;2022-07-23T10:03:07;6.65;;;6.22;;
69906;SDS011;57190;47.918;8.112;2022-07-23T10:05:35;7.32;;;6.82;;
69906;SDS011;57190;47.918;8.112;2022-07-23T10:08:02;7.53;;;7.03;;
69906;SDS011;57190;47.918;8.112;2022-07-23T10:10:28;7.63;;;6.85;;
69906;SDS011;57190;47.918;8.112;2022-07-23T10:12:55;6.72;;;6.22;;
69906;SDS011;57190;47.918;8.112;2022-07-23T10:15:24;6.80;;;6.38;;
69906;SDS011;57190;47.918;8.112;2022-07-23T10:17:51;7.50;;;6.90;;
69906;SDS011;57190;47.918;8.112;2022-07-23T10:20:16;6.65;;;6.25;;
69906;SDS011;57190;47.918;8.112;2022-07-23T10:22:48;6.95;;;6.40;;
69906;SDS011;57190;47.918;8.112;2022-07-23T10:30:39;7.07;;;6.57;;
69906;SDS011;57190;47.918;8.112;2022-07-23T10:39:08;6.07;;;5.68;;
69906;SDS011;57190;47.918;8.112;2022-07-23T10:41:40;6.20;;;5.80;;
69906;SDS011;57190;47.918;8.112;2022-07-23T10:44:08;7.35;;;6.85;;
69906;SDS011;57190;47.918;8.112;2022-07-23T10:49:40;6.13;;;5.70;;
69906;SDS011;57190;47.918;8.112;2022-07-23T10:54:52;6.50;;;6.10;;
69906;SDS011;57190;47.918;8.112;2022-07-23T10:57:27;6.70;;;6.20;;
69906;SDS011;57190;47.918;8.112;2022-07-23T11:02:31;6.82;;;6.32;;
69906;SDS011;57190;47.918;8.112;2022-07-23T11:05:40;7.15;;;6.68;;
69906;SDS011;57190;47.918;8.112;2022-07-23T11:10:48;6.88;;;6.38;;
69906;SDS011;57190;47.918;8.112;2022-07-23T11:24:28;6.75;;;6.35;;
69906;SDS011;57190;47.918;8.112;2022-07-23T11:32:11;6.82;;;6.38;;
69906;SDS011;57190;47.918;8.112;2022-07-23T11:34:43;6.97;;;6.47;;
69906;SDS011;57190;47.918;8.112;2022-07-23T11:40:08;6.65;;;6.20;;
69906;SDS011;57190;47.918;8.112;2022-07-23T11:42:37;6.25;;;5.85;;
69906;SDS011;57190;47.918;8.112;2022-07-23T11:45:39;7.05;;;6.43;;
69906;SDS011;57190;47.918;8.112;2022-07-23T11:48:20;6.20;;;5.82;;
69906;SDS011;57190;47.918;8.112;2022-07-23T11:50:47;6.72;;;6.32;;
69906;SDS011;57190;47.918;8.112;2022-07-23T11:53:20;7.45;;;6.85;;
69906;SDS011;57190;47.918;8.112;2022-07-23T11:55:49;6.78;;;6.28;;
69906;SDS011;57190;47.918;8.112;2022-07-23T11:58:16;7.03;;;6.53;;
69906;SDS011;57190;47.918;8.112;2022-07-23T12:00:41;6.70;;;6.22;;
69906;SDS011;57190;47.918;8.112;2022-07-23T12:03:07;6.45;;;6.00;;
69906;SDS011;57190;47.918;8.112;2022-07-23T12:05:34;6.93;;;6.43;;
69906;SDS011;57190;47.918;8.112;2022-07-23T12:08:02;7.25;;;6.65;;
69906;SDS011;57190;47.918;8.112;2022-07-23T12:10:33;6.82;;;6.32;;
69906;SDS011;57190;47.918;8.112;2022-07-23T12:13:05;6.68;;;6.18;;
69906;SDS011;57190;47.918;8.112;2022-07-23T12:15:36;6.50;;;6.03;;
69906;SDS011;57190;47.918;8.112;2022-07-23T12:18:05;5.93;;;5.53;;
69906;SDS011;57190;47.918;8.112;2022-07-23T12:20:33;6.07;;;5.68;;
69906;SDS011;57190;47.918;8.112;2022-07-23T12:23:19;7.15;;;6.50;;
69906;SDS011;57190;47.918;8.112;2022-07-23T12:25:47;6.50;;;6.00;;
69906;SDS011;57190;47.918;8.112;2022-07-23T12:28:15;5.80;;;5.40;;
69906;SDS011;57190;47.918;8.112;2022-07-23T12:31:02;5.68;;;5.35;;
69906;SDS011;57190;47.918;8.112;2022-07-23T12:33:35;6.00;;;5.53;;
69906;SDS011;57190;47.918;8.112;2022-07-23T12:36:04;6.15;;;5.75;;
69906;SDS011;57190;47.918;8.112;2022-07-23T12:38:39;5.82;;;5.40;;
69906;SDS011;57190;47.918;8.112;2022-07-23T12:41:06;6.10;;;5.70;;
69906;SDS011;57190;47.918;8.112;2022-07-23T12:43:33;6.13;;;5.63;;
69906;SDS011;57190;47.918;8.112;2022-07-23T12:46:05;5.38;;;5.07;;
69906;SDS011;57190;47.918;8.112;2022-07-23T12:48:34;5.80;;;5.40;;
69906;SDS011;57190;47.918;8.112;2022-07-23T12:51:34;5.75;;;5.35;;
69906;SDS011;57190;47.918;8.112;2022-07-23T12:56:30;6.15;;;5.65;;
69906;SDS011;57190;47.918;8.112;2022-07-23T12:58:58;5.95;;;5.55;;
69906;SDS011;57190;47.918;8.112;2022-07-23T13:01:56;5.65;;;5.25;;
69906;SDS011;57190;47.918;8.112;2022-07-23T13:04:26;6.20;;;5.90;;
69906;SDS011;57190;47.918;8.112;2022-07-23T13:06:56;6.95;;;6.18;;
69906;SDS011;57190;47.918;8.112;2022-07-23T13:09:27;6.28;;;5.78;;
69906;SDS011;57190;47.918;8.112;2022-07-23T13:11:54;6.45;;;5.97;;
69906;SDS011;57190;47.918;8.112;2022-07-23T13:14:21;31.88;;;7.25;;
69906;SDS011;57190;47.918;8.112;2022-07-23T13:16:48;6.43;;;5.93;;
69906;SDS011;57190;47.918;8.112;2022-07-23T13:19:15;6.45;;;5.95;;
69906;SDS011;57190;47.918;8.112;2022-07-23T13:21:41;5.78;;;5.38;;
69906;SDS011;57190;47.918;8.112;2022-07-23T13:24:07;6.07;;;5.68;;
69906;SDS011;57190;47.918;8.112;2022-07-23T13:26:34;5.55;;;5.05;;
69906;SDS011;57190;47.918;8.112;2022-07-23T13:29:00;5.55;;;5.05;;
69906;SDS011;57190;47.918;8.112;2022-07-23T13:31:25;5.30;;;4.90;;
69906;SDS011;57190;47.918;8.112;2022-07-23T13:33:51;5.22;;;4.93;;
69906;SDS011;57190;47.918;8.112;2022-07-23T13:36:16;5.82;;;5.40;;
69906;SDS011;57190;47.918;8.112;2022-07-23T13:38:42;5.97;;;5.57;;
69906;SDS011;57190;47.918;8.112;2022-07-23T13:41:08;5.75;;;5.35;;
69906;SDS011;57190;47.918;8.112;2022-07-23T13:43:33;5.82;;;5.32;;
69906;SDS011;57190;47.918;8.112;2022-07-23T13:45:59;5.10;;;4.80;;
69906;SDS011;57190;47.918;8.112;2022-07-23T13:48:25;5.55;;;5.25;;
69906;SDS011;57190;47.918;8.112;2022-07-23T13:50:50;5.82;;;5.30;;
69906;SDS011;57190;47.918;8.112;2022-07-23T13:53:20;5.78;;;5.30;;
69906;SDS011;57190;47.918;8.112;2022-07-23T13:55:48;5.45;;;5.05;;
69906;SDS011;57190;47.918;8.112;2022-07-23T13:58:15;5.68;;;5.28;;
69906;SDS011;57190;47.918;8.112;2022-07-23T14:00:42;5.43;;;5.07;;
69906;SDS011;57190;47.918;8.112;2022-07-23T14:03:11;5.55;;;5.25;;
69906;SDS011;57190;47.918;8.112;2022-07-23T14:05:37;5.80;;;5.43;;
69906;SDS011;57190;47.918;8.112;2022-07-23T14:08:03;5.20;;;4.90;;
69906;SDS011;57190;47.918;8.112;2022-07-23T14:10:29;5.97;;;5.65;;
69906;SDS011;57190;47.918;8.112;2022-07-23T14:12:55;5.82;;;5.32;;
69906;SDS011;57190;47.918;8.112;2022-07-23T14:15:23;5.68;;;5.28;;
69906;SDS011;57190;47.918;8.112;2022-07-23T14:17:51;5.40;;;5.00;;
69906;SDS011;57190;47.918;8.112;2022-07-23T14:20:18;6.38;;;5.97;;
69906;SDS011;57190;47.918;8.112;2022-07-23T14:22:43;5.95;;;5.55;;
69906;SDS011;57190;47.918;8.112;2022-07-23T14:25:09;6.20;;;5.80;;
69906;SDS011;57190;47.918;8.112;2022-07-23T14:27:35;5.68;;;5.18;;
69906;SDS011;57190;47.918;8.112;2022-07-23T14:30:02;6.47;;;6.07;;
69906;SDS011;57190;47.918;8.112;2022-07-23T14:32:29;6.05;;;5.65;;
69906;SDS011;57190;47.918;8.112;2022-07-23T14:34:54;5.78;;;5.38;;
69906;SDS011;57190;47.918;8.112;2022-07-23T14:37:20;5.63;;;5.22;;
69906;SDS011;57190;47.918;8.112;2022-07-23T14:39:46;6.25;;;5.85;;
69906;SDS011;57190;47.918;8.112;2022-07-23T14:42:15;6.00;;;5.60;;
69906;SDS011;57190;47.918;8.112;2022-07-23T14:44:40;6.45;;;5.95;;
69906;SDS011;57190;47.918;8.112;2022-07-23T14:47:07;5.65;;;5.25;;
69906;SDS011;57190;47.918;8.112;2022-07-23T14:49:33;6.32;;;5.93;;
69906;SDS011;57190;47.918;8.112;2022-07-23T14:51:59;6.18;;;5.70;;
69906;SDS011;57190;47.918;8.112;2022-07-23T14:54:26;5.35;;;4.95;;
69906;SDS011;57190;47.918;8.112;2022-07-23T14:56:55;5.60;;;5.22;;
69906;SDS011;57190;47.918;8.112;2022-07-23T14:59:22;6.25;;;5.22;;
69906;SDS011;57190;47.918;8.112;2022-07-23T15:01:48;5.28;;;4.97;;
69906;SDS011;57190;47.918;8.112;2022-07-23T15:04:14;6.20;;;5.80;;
69906;SDS011;57190;47.918;8.112;2022-07-23T15:06:39;5.85;;;5.50;;
69906;SDS011;57190;47.918;8.112;2022-07-23T15:09:05;6.05;;;5.65;;
69906;SDS011;57190;47.918;8.112;2022-07-23T15:11:31;5.72;;;5.22;;
69906;SDS011;57190;47.918;8.112;2022-07-23T15:14:02;5.25;;;4.82;;
69906;SDS011;57190;47.918;8.112;2022-07-23T15:16:30;6.07;;;5.68;;
69906;SDS011;57190;47.918;8.112;2022-07-23T15:18:57;5.38;;;5.07;;
69906;SDS011;57190;47.918;8.112;2022-07-23T15:21:23;5.28;;;4.97;;
69906;SDS011;57190;47.918;8.112;2022-07-23T15:23:48;5.70;;;5.30;;
69906;SDS011;57190;47.918;8.112;2022-07-23T15:26:14;5.53;;;5.10;;
69906;SDS011;57190;47.918;8.112;2022-07-23T15:28:40;5.80;;;5.30;;
69906;SDS011;57190;47.918;8.112;2022-07-23T15:31:06;6.35;;;5.90;;
69906;SDS011;57190;47.918;8.112;2022-07-23T15:33:32;5.65;;;5.25;;
69906;SDS011;57190;47.918;8.112;2022-07-23T15:35:58;5.82;;;5.43;;
69906;SDS011;57190;47.918;8.112;2022-07-23T15:38:24;6.30;;;5.80;;
69906;SDS011;57190;47.918;8.112;2022-07-23T15:40:52;6.25;;;5.85;;